sensor_id;sensor_type;location;lat;lon;timestamp;P1;durP1;ratioP1;P2;durP2;ratioP2
75437;SDS011;64015;49.392;15.582;2022-11-21T00:00:16;11.07;;;4.75;;
75437;SDS011;64015;49.392;15.582;2022-11-21T00:03:00;13.90;;;5.15;;
75437;SDS011;64015;49.392;15.582;2022-11-21T00:05:27;13.45;;;5.53;;
75437;SDS011;64015;49.392;15.582;2022-11-21T00:07:54;10.48;;;4.40;;
75437;SDS011;64015;49.392;15.582;2022-11-21T00:10:19;11.57;;;4.75;;
75437;SDS011;64015;49.392;15.582;2022-11-21T00:12:45;11.27;;;4.35;;
75437;SDS011;64015;49.392;15.582;2022-11-21T00:15:11;7.55;;;3.85;;
75437;SDS011;64015;49.392;15.582;2022-11-21T00:17:37;9.48;;;4.13;;
75437;SDS011;64015;49.392;15.582;2022-11-21T00:20:02;10.23;;;3.78;;
75437;SDS011;64015;49.392;15.582;2022-11-21T00:22:29;10.00;;;4.43;;
75437;SDS011;64015;49.392;15.582;2022-11-21T00:24:55;9.88;;;3.55;;
75437;SDS011;64015;49.392;15.582;2022-11-21T00:27:21;10.27;;;3.67;;
75437;SDS011;64015;49.392;15.582;2022-11-21T00:29:46;9.60;;;4.30;;
75437;SDS011;64015;49.392;15.582;2022-11-21T00:32:12;10.27;;;4.63;;
75437;SDS011;64015;49.392;15.582;2022-11-21T00:34:39;10.27;;;4.32;;
75437;SDS011;64015;49.392;15.582;2022-11-21T00:37:05;9.50;;;4.60;;
75437;SDS011;64015;49.392;15.582;2022-11-21T00:39:30;8.57;;;4.32;;
75437;SDS011;64015;49.392;15.582;2022-11-21T00:41:56;9.18;;;4.05;;
75437;SDS011;64015;49.392;15.582;2022-11-21T00:44:21;10.45;;;5.00;;
75437;SDS011;64015;49.392;15.582;2022-11-21T00:46:47;8.70;;;3.65;;
75437;SDS011;64015;49.392;15.582;2022-11-21T00:49:12;8.30;;;3.72;;
75437;SDS011;64015;49.392;15.582;2022-11-21T00:51:38;8.88;;;3.45;;
75437;SDS011;64015;49.392;15.582;2022-11-21T00:54:04;11.32;;;4.70;;
75437;SDS011;64015;49.392;15.582;2022-11-21T00:56:29;9.43;;;4.65;;
75437;SDS011;64015;49.392;15.582;2022-11-21T00:58:55;7.68;;;3.80;;
75437;SDS011;64015;49.392;15.582;2022-11-21T01:01:20;9.55;;;5.18;;
75437;SDS011;64015;49.392;15.582;2022-11-21T01:03:46;8.77;;;4.13;;
75437;SDS011;64015;49.392;15.582;2022-11-21T01:06:13;9.57;;;3.92;;
75437;SDS011;64015;49.392;15.582;2022-11-21T01:08:40;8.43;;;3.42;;
75437;SDS011;64015;49.392;15.582;2022-11-21T01:11:08;9.15;;;4.63;;
75437;SDS011;64015;49.392;15.582;2022-11-21T01:13:38;9.32;;;4.05;;
75437;SDS011;64015;49.392;15.582;2022-11-21T01:16:05;9.52;;;4.22;;
75437;SDS011;64015;49.392;15.582;2022-11-21T01:18:32;8.88;;;3.88;;
75437;SDS011;64015;49.392;15.582;2022-11-21T01:21:02;7.45;;;3.50;;
75437;SDS011;64015;49.392;15.582;2022-11-21T01:23:29;10.30;;;3.92;;
75437;SDS011;64015;49.392;15.582;2022-11-21T01:25:59;7.63;;;3.40;;
75437;SDS011;64015;49.392;15.582;2022-11-21T01:28:25;9.73;;;3.75;;
75437;SDS011;64015;49.392;15.582;2022-11-21T01:30:51;6.80;;;3.35;;
75437;SDS011;64015;49.392;15.582;2022-11-21T01:33:17;8.85;;;4.30;;
75437;SDS011;64015;49.392;15.582;2022-11-21T01:35:42;6.30;;;3.10;;
75437;SDS011;64015;49.392;15.582;2022-11-21T01:38:08;7.88;;;3.53;;
75437;SDS011;64015;49.392;15.582;2022-11-21T01:40:37;8.35;;;3.47;;
75437;SDS011;64015;49.392;15.582;2022-11-21T01:43:10;8.25;;;3.80;;
75437;SDS011;64015;49.392;15.582;2022-11-21T01:45:58;7.05;;;3.10;;
75437;SDS011;64015;49.392;15.582;2022-11-21T01:48:49;5.30;;;2.92;;
75437;SDS011;64015;49.392;15.582;2022-11-21T01:56:44;6.05;;;3.22;;
75437;SDS011;64015;49.392;15.582;2022-11-21T01:59:14;4.95;;;2.55;;
75437;SDS011;64015;49.392;15.582;2022-11-21T02:01:56;4.63;;;2.40;;
75437;SDS011;64015;49.392;15.582;2022-11-21T02:04:24;7.97;;;3.58;;
75437;SDS011;64015;49.392;15.582;2022-11-21T02:06:55;5.28;;;2.63;;
75437;SDS011;64015;49.392;15.582;2022-11-21T02:09:20;6.25;;;3.05;;
75437;SDS011;64015;49.392;15.582;2022-11-21T02:11:48;5.38;;;3.33;;
75437;SDS011;64015;49.392;15.582;2022-11-21T02:14:18;5.82;;;3.08;;
75437;SDS011;64015;49.392;15.582;2022-11-21T02:16:44;5.30;;;2.97;;
75437;SDS011;64015;49.392;15.582;2022-11-21T02:22:26;4.55;;;2.38;;
75437;SDS011;64015;49.392;15.582;2022-11-21T02:27:32;6.18;;;2.85;;
75437;SDS011;64015;49.392;15.582;2022-11-21T02:29:58;5.65;;;2.63;;
75437;SDS011;64015;49.392;15.582;2022-11-21T02:32:34;6.10;;;3.33;;
75437;SDS011;64015;49.392;15.582;2022-11-21T02:35:02;6.90;;;2.92;;
75437;SDS011;64015;49.392;15.582;2022-11-21T02:37:29;6.25;;;3.47;;
75437;SDS011;64015;49.392;15.582;2022-11-21T02:39:56;4.85;;;2.55;;
75437;SDS011;64015;49.392;15.582;2022-11-21T02:42:32;5.78;;;2.33;;
75437;SDS011;64015;49.392;15.582;2022-11-21T02:47:38;4.53;;;2.80;;
75437;SDS011;64015;49.392;15.582;2022-11-21T02:50:13;5.65;;;2.78;;
75437;SDS011;64015;49.392;15.582;2022-11-21T02:52:43;5.07;;;3.03;;
75437;SDS011;64015;49.392;15.582;2022-11-21T02:55:09;6.65;;;2.80;;
75437;SDS011;64015;49.392;15.582;2022-11-21T02:57:37;6.10;;;3.45;;
75437;SDS011;64015;49.392;15.582;2022-11-21T03:00:03;5.97;;;2.90;;
75437;SDS011;64015;49.392;15.582;2022-11-21T03:02:30;7.18;;;3.50;;
75437;SDS011;64015;49.392;15.582;2022-11-21T03:04:55;5.55;;;3.08;;
75437;SDS011;64015;49.392;15.582;2022-11-21T03:07:21;4.97;;;2.50;;
75437;SDS011;64015;49.392;15.582;2022-11-21T03:09:46;5.35;;;2.80;;
75437;SDS011;64015;49.392;15.582;2022-11-21T03:12:12;4.30;;;2.55;;
75437;SDS011;64015;49.392;15.582;2022-11-21T03:14:37;5.65;;;2.85;;
75437;SDS011;64015;49.392;15.582;2022-11-21T03:17:03;4.85;;;2.63;;
75437;SDS011;64015;49.392;15.582;2022-11-21T03:19:29;3.60;;;1.80;;
75437;SDS011;64015;49.392;15.582;2022-11-21T03:21:54;4.78;;;2.63;;
75437;SDS011;64015;49.392;15.582;2022-11-21T03:24:20;6.03;;;2.88;;
75437;SDS011;64015;49.392;15.582;2022-11-21T03:26:46;5.32;;;2.55;;
75437;SDS011;64015;49.392;15.582;2022-11-21T03:29:11;5.82;;;2.60;;
75437;SDS011;64015;49.392;15.582;2022-11-21T03:31:37;4.70;;;2.50;;
75437;SDS011;64015;49.392;15.582;2022-11-21T03:34:03;3.92;;;1.90;;
75437;SDS011;64015;49.392;15.582;2022-11-21T03:36:28;5.65;;;2.33;;
75437;SDS011;64015;49.392;15.582;2022-11-21T03:38:54;3.75;;;2.17;;
75437;SDS011;64015;49.392;15.582;2022-11-21T03:41:23;3.33;;;2.03;;
75437;SDS011;64015;49.392;15.582;2022-11-21T03:43:59;4.30;;;2.42;;
75437;SDS011;64015;49.392;15.582;2022-11-21T03:46:26;4.32;;;2.83;;
75437;SDS011;64015;49.392;15.582;2022-11-21T03:48:53;4.65;;;2.20;;
75437;SDS011;64015;49.392;15.582;2022-11-21T03:51:19;3.97;;;2.10;;
75437;SDS011;64015;49.392;15.582;2022-11-21T03:53:44;7.32;;;2.78;;
75437;SDS011;64015;49.392;15.582;2022-11-21T03:56:13;4.38;;;2.60;;
75437;SDS011;64015;49.392;15.582;2022-11-21T03:58:39;5.05;;;2.70;;
75437;SDS011;64015;49.392;15.582;2022-11-21T04:01:04;4.32;;;2.22;;
75437;SDS011;64015;49.392;15.582;2022-11-21T04:03:30;4.82;;;2.78;;
75437;SDS011;64015;49.392;15.582;2022-11-21T04:05:56;5.57;;;2.40;;
75437;SDS011;64015;49.392;15.582;2022-11-21T04:08:21;4.15;;;2.10;;
75437;SDS011;64015;49.392;15.582;2022-11-21T04:10:47;4.10;;;2.45;;
75437;SDS011;64015;49.392;15.582;2022-11-21T04:13:14;4.10;;;2.45;;
75437;SDS011;64015;49.392;15.582;2022-11-21T04:15:40;4.30;;;2.15;;
75437;SDS011;64015;49.392;15.582;2022-11-21T04:18:06;5.60;;;2.13;;
75437;SDS011;64015;49.392;15.582;2022-11-21T04:20:31;4.35;;;2.38;;
75437;SDS011;64015;49.392;15.582;2022-11-21T04:22:57;3.60;;;1.60;;
75437;SDS011;64015;49.392;15.582;2022-11-21T04:25:22;4.22;;;1.83;;
75437;SDS011;64015;49.392;15.582;2022-11-21T04:27:48;4.90;;;1.80;;
75437;SDS011;64015;49.392;15.582;2022-11-21T04:30:14;5.18;;;1.85;;
75437;SDS011;64015;49.392;15.582;2022-11-21T04:32:39;3.63;;;1.58;;
75437;SDS011;64015;49.392;15.582;2022-11-21T04:35:05;5.05;;;1.85;;
75437;SDS011;64015;49.392;15.582;2022-11-21T04:37:31;3.45;;;1.80;;
75437;SDS011;64015;49.392;15.582;2022-11-21T04:39:57;3.03;;;1.30;;
75437;SDS011;64015;49.392;15.582;2022-11-21T04:42:22;3.63;;;1.63;;
75437;SDS011;64015;49.392;15.582;2022-11-21T04:44:48;2.13;;;1.15;;
75437;SDS011;64015;49.392;15.582;2022-11-21T04:47:13;2.88;;;1.33;;
75437;SDS011;64015;49.392;15.582;2022-11-21T04:49:39;2.90;;;1.40;;
75437;SDS011;64015;49.392;15.582;2022-11-21T04:52:05;3.58;;;1.92;;
75437;SDS011;64015;49.392;15.582;2022-11-21T04:54:30;2.55;;;1.30;;
75437;SDS011;64015;49.392;15.582;2022-11-21T04:56:56;2.25;;;1.33;;
75437;SDS011;64015;49.392;15.582;2022-11-21T04:59:21;2.20;;;0.93;;
75437;SDS011;64015;49.392;15.582;2022-11-21T05:01:47;3.42;;;1.20;;
75437;SDS011;64015;49.392;15.582;2022-11-21T05:04:12;3.00;;;1.30;;
75437;SDS011;64015;49.392;15.582;2022-11-21T05:06:38;3.05;;;1.20;;
75437;SDS011;64015;49.392;15.582;2022-11-21T05:09:03;2.60;;;0.90;;
75437;SDS011;64015;49.392;15.582;2022-11-21T05:11:29;2.20;;;1.20;;
75437;SDS011;64015;49.392;15.582;2022-11-21T05:14:13;2.65;;;1.30;;
75437;SDS011;64015;49.392;15.582;2022-11-21T05:16:39;2.75;;;1.20;;
75437;SDS011;64015;49.392;15.582;2022-11-21T05:19:05;1.75;;;0.93;;
75437;SDS011;64015;49.392;15.582;2022-11-21T05:21:31;2.40;;;1.25;;
75437;SDS011;64015;49.392;15.582;2022-11-21T05:23:57;3.10;;;1.30;;
75437;SDS011;64015;49.392;15.582;2022-11-21T05:26:22;2.25;;;0.90;;
75437;SDS011;64015;49.392;15.582;2022-11-21T05:28:48;2.78;;;1.58;;
75437;SDS011;64015;49.392;15.582;2022-11-21T05:31:13;2.67;;;1.45;;
75437;SDS011;64015;49.392;15.582;2022-11-21T05:33:39;1.70;;;0.90;;
75437;SDS011;64015;49.392;15.582;2022-11-21T05:36:04;2.45;;;0.88;;
75437;SDS011;64015;49.392;15.582;2022-11-21T05:38:30;2.85;;;1.10;;
75437;SDS011;64015;49.392;15.582;2022-11-21T05:40:56;1.95;;;0.80;;
75437;SDS011;64015;49.392;15.582;2022-11-21T05:43:21;2.55;;;1.38;;
75437;SDS011;64015;49.392;15.582;2022-11-21T05:46:05;2.40;;;1.00;;
75437;SDS011;64015;49.392;15.582;2022-11-21T05:48:31;2.15;;;1.05;;
75437;SDS011;64015;49.392;15.582;2022-11-21T05:50:58;2.65;;;1.30;;
75437;SDS011;64015;49.392;15.582;2022-11-21T05:53:24;3.33;;;1.85;;
75437;SDS011;64015;49.392;15.582;2022-11-21T05:55:49;2.75;;;1.60;;
75437;SDS011;64015;49.392;15.582;2022-11-21T05:58:15;2.33;;;1.10;;
75437;SDS011;64015;49.392;15.582;2022-11-21T06:00:40;2.30;;;0.90;;
75437;SDS011;64015;49.392;15.582;2022-11-21T06:03:07;2.17;;;1.10;;
75437;SDS011;64015;49.392;15.582;2022-11-21T06:05:57;2.63;;;1.17;;
75437;SDS011;64015;49.392;15.582;2022-11-21T06:08:24;2.40;;;0.90;;
75437;SDS011;64015;49.392;15.582;2022-11-21T06:10:50;2.38;;;0.90;;
75437;SDS011;64015;49.392;15.582;2022-11-21T06:13:16;3.22;;;1.00;;
75437;SDS011;64015;49.392;15.582;2022-11-21T06:15:48;2.00;;;1.10;;
75437;SDS011;64015;49.392;15.582;2022-11-21T06:18:15;2.10;;;0.98;;
75437;SDS011;64015;49.392;15.582;2022-11-21T06:20:41;3.97;;;1.10;;
75437;SDS011;64015;49.392;15.582;2022-11-21T06:23:06;2.63;;;1.17;;
75437;SDS011;64015;49.392;15.582;2022-11-21T06:25:32;5.07;;;1.83;;
75437;SDS011;64015;49.392;15.582;2022-11-21T06:27:58;4.13;;;1.67;;
75437;SDS011;64015;49.392;15.582;2022-11-21T06:30:24;3.33;;;1.42;;
75437;SDS011;64015;49.392;15.582;2022-11-21T06:32:49;2.63;;;1.13;;
75437;SDS011;64015;49.392;15.582;2022-11-21T06:35:15;2.88;;;0.70;;
75437;SDS011;64015;49.392;15.582;2022-11-21T06:37:41;2.40;;;0.82;;
75437;SDS011;64015;49.392;15.582;2022-11-21T06:40:06;2.28;;;0.60;;
75437;SDS011;64015;49.392;15.582;2022-11-21T06:42:32;2.05;;;0.68;;
75437;SDS011;64015;49.392;15.582;2022-11-21T06:44:58;2.22;;;0.88;;
75437;SDS011;64015;49.392;15.582;2022-11-21T06:47:23;2.15;;;0.90;;
75437;SDS011;64015;49.392;15.582;2022-11-21T06:49:49;2.40;;;1.00;;
75437;SDS011;64015;49.392;15.582;2022-11-21T06:52:15;3.97;;;1.15;;
75437;SDS011;64015;49.392;15.582;2022-11-21T06:54:40;1.70;;;0.80;;
75437;SDS011;64015;49.392;15.582;2022-11-21T06:57:06;2.33;;;1.00;;
75437;SDS011;64015;49.392;15.582;2022-11-21T06:59:32;2.00;;;0.73;;
75437;SDS011;64015;49.392;15.582;2022-11-21T07:02:16;2.45;;;0.88;;
75437;SDS011;64015;49.392;15.582;2022-11-21T07:04:41;2.22;;;0.70;;
75437;SDS011;64015;49.392;15.582;2022-11-21T07:07:07;1.90;;;0.60;;
75437;SDS011;64015;49.392;15.582;2022-11-21T07:09:32;1.88;;;0.68;;
75437;SDS011;64015;49.392;15.582;2022-11-21T07:12:00;1.75;;;0.80;;
75437;SDS011;64015;49.392;15.582;2022-11-21T07:14:46;2.80;;;0.85;;
75437;SDS011;64015;49.392;15.582;2022-11-21T07:17:12;2.85;;;1.00;;
75437;SDS011;64015;49.392;15.582;2022-11-21T07:19:38;2.53;;;0.95;;
75437;SDS011;64015;49.392;15.582;2022-11-21T07:22:03;2.60;;;0.63;;
75437;SDS011;64015;49.392;15.582;2022-11-21T07:24:29;1.38;;;0.70;;
75437;SDS011;64015;49.392;15.582;2022-11-21T07:26:54;1.58;;;0.52;;
75437;SDS011;64015;49.392;15.582;2022-11-21T07:29:20;1.45;;;0.70;;
75437;SDS011;64015;49.392;15.582;2022-11-21T07:31:46;2.72;;;0.80;;
75437;SDS011;64015;49.392;15.582;2022-11-21T07:34:11;2.13;;;0.82;;
75437;SDS011;64015;49.392;15.582;2022-11-21T07:36:37;1.63;;;0.60;;
75437;SDS011;64015;49.392;15.582;2022-11-21T07:39:03;1.63;;;0.70;;
75437;SDS011;64015;49.392;15.582;2022-11-21T07:41:28;3.33;;;0.82;;
75437;SDS011;64015;49.392;15.582;2022-11-21T07:43:54;1.80;;;0.77;;
75437;SDS011;64015;49.392;15.582;2022-11-21T07:46:19;1.20;;;0.60;;
75437;SDS011;64015;49.392;15.582;2022-11-21T07:48:45;1.85;;;0.73;;
75437;SDS011;64015;49.392;15.582;2022-11-21T07:51:10;3.60;;;0.85;;
75437;SDS011;64015;49.392;15.582;2022-11-21T07:53:36;1.92;;;1.10;;
75437;SDS011;64015;49.392;15.582;2022-11-21T07:56:02;4.63;;;1.63;;
75437;SDS011;64015;49.392;15.582;2022-11-21T07:58:29;3.45;;;1.15;;
75437;SDS011;64015;49.392;15.582;2022-11-21T08:00:54;4.35;;;0.95;;
75437;SDS011;64015;49.392;15.582;2022-11-21T08:03:20;2.90;;;1.25;;
75437;SDS011;64015;49.392;15.582;2022-11-21T08:05:47;4.80;;;1.48;;
75437;SDS011;64015;49.392;15.582;2022-11-21T08:08:12;3.25;;;1.20;;
75437;SDS011;64015;49.392;15.582;2022-11-21T08:10:40;5.70;;;2.08;;
75437;SDS011;64015;49.392;15.582;2022-11-21T08:13:07;2.78;;;1.00;;
75437;SDS011;64015;49.392;15.582;2022-11-21T08:15:33;2.95;;;1.10;;
75437;SDS011;64015;49.392;15.582;2022-11-21T08:18:07;2.83;;;1.02;;
75437;SDS011;64015;49.392;15.582;2022-11-21T08:20:33;2.58;;;1.38;;
75437;SDS011;64015;49.392;15.582;2022-11-21T08:22:58;4.25;;;1.25;;
75437;SDS011;64015;49.392;15.582;2022-11-21T08:25:24;4.80;;;1.75;;
75437;SDS011;64015;49.392;15.582;2022-11-21T08:27:49;4.35;;;1.50;;
75437;SDS011;64015;49.392;15.582;2022-11-21T08:30:15;2.80;;;1.05;;
75437;SDS011;64015;49.392;15.582;2022-11-21T08:32:41;3.60;;;1.08;;
75437;SDS011;64015;49.392;15.582;2022-11-21T08:35:06;4.95;;;0.70;;
75437;SDS011;64015;49.392;15.582;2022-11-21T08:37:32;4.38;;;0.80;;
75437;SDS011;64015;49.392;15.582;2022-11-21T08:39:57;2.10;;;0.52;;
75437;SDS011;64015;49.392;15.582;2022-11-21T08:42:23;3.22;;;1.17;;
75437;SDS011;64015;49.392;15.582;2022-11-21T08:44:50;1.85;;;0.65;;
75437;SDS011;64015;49.392;15.582;2022-11-21T08:47:15;3.47;;;0.80;;
75437;SDS011;64015;49.392;15.582;2022-11-21T08:49:45;2.70;;;0.60;;
75437;SDS011;64015;49.392;15.582;2022-11-21T08:52:11;1.55;;;0.70;;
75437;SDS011;64015;49.392;15.582;2022-11-21T08:54:38;2.38;;;0.70;;
75437;SDS011;64015;49.392;15.582;2022-11-21T08:57:03;2.42;;;0.68;;
75437;SDS011;64015;49.392;15.582;2022-11-21T08:59:29;3.53;;;0.80;;
75437;SDS011;64015;49.392;15.582;2022-11-21T09:01:54;4.78;;;1.10;;
75437;SDS011;64015;49.392;15.582;2022-11-21T09:04:20;2.22;;;0.90;;
75437;SDS011;64015;49.392;15.582;2022-11-21T09:06:45;3.05;;;0.80;;
75437;SDS011;64015;49.392;15.582;2022-11-21T09:09:11;2.47;;;0.80;;
75437;SDS011;64015;49.392;15.582;2022-11-21T09:11:37;1.40;;;0.60;;
75437;SDS011;64015;49.392;15.582;2022-11-21T09:14:02;2.10;;;0.90;;
75437;SDS011;64015;49.392;15.582;2022-11-21T09:16:47;2.00;;;0.73;;
75437;SDS011;64015;49.392;15.582;2022-11-21T09:19:32;2.03;;;1.05;;
75437;SDS011;64015;49.392;15.582;2022-11-21T09:21:58;1.73;;;0.60;;
75437;SDS011;64015;49.392;15.582;2022-11-21T09:24:24;2.75;;;0.85;;
75437;SDS011;64015;49.392;15.582;2022-11-21T09:26:49;2.95;;;1.02;;
75437;SDS011;64015;49.392;15.582;2022-11-21T09:29:15;2.53;;;0.90;;
75437;SDS011;64015;49.392;15.582;2022-11-21T09:31:41;1.63;;;0.60;;
75437;SDS011;64015;49.392;15.582;2022-11-21T09:34:07;1.23;;;0.60;;
75437;SDS011;64015;49.392;15.582;2022-11-21T09:36:32;3.15;;;1.13;;
75437;SDS011;64015;49.392;15.582;2022-11-21T09:38:58;2.30;;;1.27;;
75437;SDS011;64015;49.392;15.582;2022-11-21T09:41:38;2.40;;;0.90;;
75437;SDS011;64015;49.392;15.582;2022-11-21T09:45:03;3.38;;;0.95;;
75437;SDS011;64015;49.392;15.582;2022-11-21T09:47:34;2.63;;;0.77;;
75437;SDS011;64015;49.392;15.582;2022-11-21T09:58:05;1.55;;;0.73;;
75437;SDS011;64015;49.392;15.582;2022-11-21T10:00:40;2.53;;;0.70;;
75437;SDS011;64015;49.392;15.582;2022-11-21T10:03:07;1.90;;;0.90;;
75437;SDS011;64015;49.392;15.582;2022-11-21T10:05:38;4.10;;;1.25;;
75437;SDS011;64015;49.392;15.582;2022-11-21T10:08:10;2.63;;;0.88;;
75437;SDS011;64015;49.392;15.582;2022-11-21T10:15:53;5.20;;;1.13;;
75437;SDS011;64015;49.392;15.582;2022-11-21T10:26:49;3.25;;;1.40;;
75437;SDS011;64015;49.392;15.582;2022-11-21T10:31:43;3.60;;;1.30;;
75437;SDS011;64015;49.392;15.582;2022-11-21T10:34:29;3.78;;;1.17;;
75437;SDS011;64015;49.392;15.582;2022-11-21T10:37:02;3.90;;;1.30;;
75437;SDS011;64015;49.392;15.582;2022-11-21T10:39:44;3.80;;;1.30;;
75437;SDS011;64015;49.392;15.582;2022-11-21T10:42:16;4.35;;;1.45;;
75437;SDS011;64015;49.392;15.582;2022-11-21T10:44:46;2.70;;;0.93;;
75437;SDS011;64015;49.392;15.582;2022-11-21T10:47:32;2.45;;;1.33;;
75437;SDS011;64015;49.392;15.582;2022-11-21T10:52:34;3.03;;;1.33;;
75437;SDS011;64015;49.392;15.582;2022-11-21T10:57:42;2.78;;;1.10;;
75437;SDS011;64015;49.392;15.582;2022-11-21T11:02:35;2.20;;;1.00;;
75437;SDS011;64015;49.392;15.582;2022-11-21T11:05:17;4.50;;;1.63;;
75437;SDS011;64015;49.392;15.582;2022-11-21T11:10:35;5.07;;;1.88;;
75437;SDS011;64015;49.392;15.582;2022-11-21T11:13:10;2.42;;;1.08;;
75437;SDS011;64015;49.392;15.582;2022-11-21T11:16:03;3.30;;;1.60;;
75437;SDS011;64015;49.392;15.582;2022-11-21T11:18:32;2.72;;;1.20;;
75437;SDS011;64015;49.392;15.582;2022-11-21T11:21:08;3.78;;;1.10;;
75437;SDS011;64015;49.392;15.582;2022-11-21T11:23:38;2.25;;;1.00;;
75437;SDS011;64015;49.392;15.582;2022-11-21T11:26:13;6.25;;;2.00;;
75437;SDS011;64015;49.392;15.582;2022-11-21T11:28:44;4.57;;;1.55;;
75437;SDS011;64015;49.392;15.582;2022-11-21T11:31:09;4.07;;;1.73;;
75437;SDS011;64015;49.392;15.582;2022-11-21T11:33:36;2.22;;;1.30;;
75437;SDS011;64015;49.392;15.582;2022-11-21T11:36:09;5.30;;;2.10;;
75437;SDS011;64015;49.392;15.582;2022-11-21T11:38:37;3.80;;;1.55;;
75437;SDS011;64015;49.392;15.582;2022-11-21T11:41:16;2.65;;;1.27;;
75437;SDS011;64015;49.392;15.582;2022-11-21T11:44:31;2.00;;;1.08;;
75437;SDS011;64015;49.392;15.582;2022-11-21T11:47:27;1.70;;;0.90;;
75437;SDS011;64015;49.392;15.582;2022-11-21T11:50:08;2.20;;;1.00;;
75437;SDS011;64015;49.392;15.582;2022-11-21T11:55:36;3.97;;;1.30;;
75437;SDS011;64015;49.392;15.582;2022-11-21T11:58:06;2.38;;;1.25;;
75437;SDS011;64015;49.392;15.582;2022-11-21T12:00:44;2.53;;;1.10;;
75437;SDS011;64015;49.392;15.582;2022-11-21T12:03:18;3.85;;;1.00;;
75437;SDS011;64015;49.392;15.582;2022-11-21T12:05:51;2.00;;;0.85;;
75437;SDS011;64015;49.392;15.582;2022-11-21T12:08:36;2.60;;;1.10;;
75437;SDS011;64015;49.392;15.582;2022-11-21T12:15:14;2.95;;;1.00;;
75437;SDS011;64015;49.392;15.582;2022-11-21T12:20:41;1.95;;;1.00;;
75437;SDS011;64015;49.392;15.582;2022-11-21T12:29:05;4.05;;;1.45;;
75437;SDS011;64015;49.392;15.582;2022-11-21T12:36:59;3.00;;;1.30;;
75437;SDS011;64015;49.392;15.582;2022-11-21T12:42:53;2.60;;;1.58;;
75437;SDS011;64015;49.392;15.582;2022-11-21T12:45:25;2.35;;;1.30;;
75437;SDS011;64015;49.392;15.582;2022-11-21T12:51:18;5.47;;;1.40;;
75437;SDS011;64015;49.392;15.582;2022-11-21T12:54:17;2.30;;;1.33;;
75437;SDS011;64015;49.392;15.582;2022-11-21T13:02:24;2.40;;;1.15;;
75437;SDS011;64015;49.392;15.582;2022-11-21T13:04:55;3.17;;;1.05;;
75437;SDS011;64015;49.392;15.582;2022-11-21T13:07:24;3.90;;;1.25;;
75437;SDS011;64015;49.392;15.582;2022-11-21T13:09:53;2.92;;;1.17;;
75437;SDS011;64015;49.392;15.582;2022-11-21T13:12:28;4.55;;;1.50;;
75437;SDS011;64015;49.392;15.582;2022-11-21T13:15:21;2.85;;;1.10;;
75437;SDS011;64015;49.392;15.582;2022-11-21T13:20:24;4.07;;;1.30;;
75437;SDS011;64015;49.392;15.582;2022-11-21T13:23:07;3.92;;;1.60;;
75437;SDS011;64015;49.392;15.582;2022-11-21T13:28:51;4.25;;;1.73;;
75437;SDS011;64015;49.392;15.582;2022-11-21T13:31:32;4.20;;;1.58;;
75437;SDS011;64015;49.392;15.582;2022-11-21T13:33:59;3.70;;;1.92;;
75437;SDS011;64015;49.392;15.582;2022-11-21T13:49:24;4.25;;;1.63;;
75437;SDS011;64015;49.392;15.582;2022-11-21T13:51:58;4.85;;;1.70;;
75437;SDS011;64015;49.392;15.582;2022-11-21T13:57:31;2.25;;;1.17;;
75437;SDS011;64015;49.392;15.582;2022-11-21T14:02:41;5.72;;;1.50;;
75437;SDS011;64015;49.392;15.582;2022-11-21T14:06:04;4.60;;;2.13;;
75437;SDS011;64015;49.392;15.582;2022-11-21T14:09:04;3.17;;;1.70;;
75437;SDS011;64015;49.392;15.582;2022-11-21T14:16:52;7.30;;;2.13;;
75437;SDS011;64015;49.392;15.582;2022-11-21T14:22:24;5.75;;;1.98;;
75437;SDS011;64015;49.392;15.582;2022-11-21T14:24:53;4.07;;;2.20;;
75437;SDS011;64015;49.392;15.582;2022-11-21T14:27:22;5.13;;;2.13;;
75437;SDS011;64015;49.392;15.582;2022-11-21T14:29:51;3.65;;;2.05;;
75437;SDS011;64015;49.392;15.582;2022-11-21T14:32:17;3.75;;;1.80;;
75437;SDS011;64015;49.392;15.582;2022-11-21T14:35:06;3.85;;;2.30;;
75437;SDS011;64015;49.392;15.582;2022-11-21T14:37:33;5.88;;;2.08;;
75437;SDS011;64015;49.392;15.582;2022-11-21T14:40:01;4.80;;;2.60;;
75437;SDS011;64015;49.392;15.582;2022-11-21T14:42:35;4.00;;;2.17;;
75437;SDS011;64015;49.392;15.582;2022-11-21T14:45:17;5.57;;;2.65;;
75437;SDS011;64015;49.392;15.582;2022-11-21T14:47:46;6.50;;;2.28;;
75437;SDS011;64015;49.392;15.582;2022-11-21T14:50:25;3.75;;;1.88;;
75437;SDS011;64015;49.392;15.582;2022-11-21T14:52:52;3.92;;;2.08;;
75437;SDS011;64015;49.392;15.582;2022-11-21T14:55:25;5.70;;;3.08;;
75437;SDS011;64015;49.392;15.582;2022-11-21T15:00:23;5.25;;;2.20;;
75437;SDS011;64015;49.392;15.582;2022-11-21T15:02:54;4.20;;;2.30;;
75437;SDS011;64015;49.392;15.582;2022-11-21T15:05:21;5.93;;;3.05;;
75437;SDS011;64015;49.392;15.582;2022-11-21T15:07:54;4.30;;;2.30;;
75437;SDS011;64015;49.392;15.582;2022-11-21T15:10:24;5.07;;;2.40;;
75437;SDS011;64015;49.392;15.582;2022-11-21T15:12:59;5.95;;;3.30;;
75437;SDS011;64015;49.392;15.582;2022-11-21T15:15:30;4.63;;;2.63;;
75437;SDS011;64015;49.392;15.582;2022-11-21T15:18:03;6.88;;;2.75;;
75437;SDS011;64015;49.392;15.582;2022-11-21T15:20:30;7.15;;;3.08;;
75437;SDS011;64015;49.392;15.582;2022-11-21T15:22:58;5.07;;;2.35;;
75437;SDS011;64015;49.392;15.582;2022-11-21T15:25:26;6.07;;;2.90;;
75437;SDS011;64015;49.392;15.582;2022-11-21T15:30:30;5.18;;;2.17;;
75437;SDS011;64015;49.392;15.582;2022-11-21T15:33:17;4.68;;;2.60;;
75437;SDS011;64015;49.392;15.582;2022-11-21T15:35:52;4.80;;;3.05;;
75437;SDS011;64015;49.392;15.582;2022-11-21T15:40:55;9.40;;;5.70;;
75437;SDS011;64015;49.392;15.582;2022-11-21T15:48:51;10.23;;;4.95;;
75437;SDS011;64015;49.392;15.582;2022-11-21T15:51:22;9.60;;;4.75;;
75437;SDS011;64015;49.392;15.582;2022-11-21T15:53:50;9.55;;;4.70;;
75437;SDS011;64015;49.392;15.582;2022-11-21T15:56:17;7.68;;;4.35;;
75437;SDS011;64015;49.392;15.582;2022-11-21T15:58:44;8.23;;;3.97;;
75437;SDS011;64015;49.392;15.582;2022-11-21T16:01:11;9.77;;;3.60;;
75437;SDS011;64015;49.392;15.582;2022-11-21T16:03:41;6.75;;;4.22;;
75437;SDS011;64015;49.392;15.582;2022-11-21T16:06:07;9.50;;;5.50;;
75437;SDS011;64015;49.392;15.582;2022-11-21T16:08:33;10.38;;;5.63;;
75437;SDS011;64015;49.392;15.582;2022-11-21T16:10:59;13.73;;;6.00;;
75437;SDS011;64015;49.392;15.582;2022-11-21T16:13:25;10.00;;;5.25;;
75437;SDS011;64015;49.392;15.582;2022-11-21T16:15:51;10.13;;;4.63;;
75437;SDS011;64015;49.392;15.582;2022-11-21T16:18:16;18.65;;;8.80;;
75437;SDS011;64015;49.392;15.582;2022-11-21T16:20:44;13.07;;;7.00;;
75437;SDS011;64015;49.392;15.582;2022-11-21T16:23:10;9.25;;;3.85;;
75437;SDS011;64015;49.392;15.582;2022-11-21T16:25:36;7.60;;;3.35;;
75437;SDS011;64015;49.392;15.582;2022-11-21T16:28:03;7.57;;;3.63;;
75437;SDS011;64015;49.392;15.582;2022-11-21T16:30:29;9.10;;;4.88;;
75437;SDS011;64015;49.392;15.582;2022-11-21T16:32:54;13.00;;;6.13;;
75437;SDS011;64015;49.392;15.582;2022-11-21T16:35:23;14.23;;;7.20;;
75437;SDS011;64015;49.392;15.582;2022-11-21T16:37:48;11.13;;;6.30;;
75437;SDS011;64015;49.392;15.582;2022-11-21T16:40:16;15.35;;;8.48;;
75437;SDS011;64015;49.392;15.582;2022-11-21T16:42:42;15.13;;;7.85;;
75437;SDS011;64015;49.392;15.582;2022-11-21T16:45:07;14.48;;;8.68;;
75437;SDS011;64015;49.392;15.582;2022-11-21T16:47:35;16.55;;;9.77;;
75437;SDS011;64015;49.392;15.582;2022-11-21T16:50:01;15.82;;;9.07;;
75437;SDS011;64015;49.392;15.582;2022-11-21T16:52:31;20.73;;;9.65;;